Who's Online

We have 1 guest online

GK Weather

An error occured during parsing XML data. Please try again.

Aviation WX

[source: ADDS]
METAR
KIAD 230752Z 00000KT 10SM CLR 09/01 A3035 RMK AO2 SLP276 T00940011 =
TAF
KIAD 230534Z 2306/2412 30005KT P6SM FEW250 =
SR / SS: 23:35 / 14:02 UTC (Washington-Dulles 2015-05-23)

JoomlaWatch Agent

Home Links
We are regularly out on the Web. When we find a great site we list it.